Time;durP1;ratioP1;P1;durP2;ratioP2;P2;SDS_P1;SDS_P2;PMS_P1;PMS_P2;Temp;Humidity;BMP_temperature;BMP_pressure;BME280_temperature;BME280_humidity;BME280_pressure;Samples;Min_cycle;Max_cycle;Signal;HPM_P1;HPM_P2
2023/11/19 00:00:25;;;;;;;20.30;10.90;;;;;;;;;;4956539;28;20527;-88
2023/11/19 00:02:51;;;;;;;21.33;10.38;;;;;;;;;;4951090;28;20063;-88
2023/11/19 00:05:17;;;;;;;20.17;11.35;;;;;;;;;;4957618;28;20082;-88
2023/11/19 00:07:42;;;;;;;17.80;10.68;;;;;;;;;;4941494;28;20055;-88
2023/11/19 00:10:09;;;;;;;18.02;9.88;;;;;;;;;;4972807;28;20394;-88
2023/11/19 00:12:36;;;;;;;23.60;11.23;;;;;;;;;;4979107;28;20477;-88
2023/11/19 00:15:02;;;;;;;21.48;10.73;;;;;;;;;;4957930;28;20027;-88
2023/11/19 00:17:27;;;;;;;21.98;11.10;;;;;;;;;;4956638;28;20046;-88
2023/11/19 00:19:53;;;;;;;19.95;10.65;;;;;;;;;;4956323;28;20041;-88
2023/11/19 00:22:18;;;;;;;21.17;10.88;;;;;;;;;;4976112;28;20464;-89
2023/11/19 00:24:45;;;;;;;22.50;10.02;;;;;;;;;;4932353;28;20038;-88
2023/11/19 00:27:11;;;;;;;23.17;10.65;;;;;;;;;;4946842;28;20035;-88
2023/11/19 00:29:37;;;;;;;20.52;9.85;;;;;;;;;;4942617;28;21596;-89
2023/11/19 00:32:03;;;;;;;26.52;11.30;;;;;;;;;;4938409;28;20042;-89
2023/11/19 00:34:28;;;;;;;23.65;10.05;;;;;;;;;;4925222;28;20038;-89
2023/11/19 00:36:55;;;;;;;21.42;9.15;;;;;;;;;;4955190;28;20057;-79
2023/11/19 00:39:21;;;;;;;21.52;9.27;;;;;;;;;;4951720;28;20031;-79
2023/11/19 00:41:46;;;;;;;26.23;10.50;;;;;;;;;;4969732;28;20519;-79
2023/11/19 00:44:12;;;;;;;27.08;9.40;;;;;;;;;;4949095;28;20030;-79
2023/11/19 00:46:37;;;;;;;25.75;9.38;;;;;;;;;;4968631;28;20049;-78
2023/11/19 00:49:04;;;;;;;21.92;8.85;;;;;;;;;;4951182;28;20029;-78
2023/11/19 00:51:31;;;;;;;22.92;9.23;;;;;;;;;;4949705;28;20045;-79
2023/11/19 00:53:57;;;;;;;22.42;8.00;;;;;;;;;;4969105;28;20097;-79
2023/11/19 00:56:23;;;;;;;22.98;8.88;;;;;;;;;;4968187;28;20078;-79
2023/11/19 00:58:48;;;;;;;25.02;8.80;;;;;;;;;;4950476;28;20456;-79
2023/11/19 01:01:14;;;;;;;25.98;8.25;;;;;;;;;;4966710;28;20504;-79
2023/11/19 01:03:39;;;;;;;21.73;7.72;;;;;;;;;;4952500;28;20031;-79
2023/11/19 01:06:05;;;;;;;28.67;7.88;;;;;;;;;;4968360;28;20093;-79
2023/11/19 01:08:31;;;;;;;31.88;8.43;;;;;;;;;;4970144;28;20034;-79
2023/11/19 01:10:56;;;;;;;24.95;7.78;;;;;;;;;;4982934;28;20026;-79
2023/11/19 01:13:24;;;;;;;27.45;8.07;;;;;;;;;;4976387;28;20031;-79
2023/11/19 01:15:50;;;;;;;24.63;7.68;;;;;;;;;;4973785;28;20031;-79
2023/11/19 01:18:16;;;;;;;21.88;7.25;;;;;;;;;;4975032;28;20038;-79
2023/11/19 01:20:42;;;;;;;23.88;6.10;;;;;;;;;;4977099;28;20042;-79
2023/11/19 01:23:07;;;;;;;21.77;6.15;;;;;;;;;;4975576;28;20038;-79
2023/11/19 01:25:34;;;;;;;22.77;6.90;;;;;;;;;;4977442;28;20513;-79
2023/11/19 01:27:59;;;;;;;22.85;6.53;;;;;;;;;;4974796;28;20117;-78
2023/11/19 01:30:27;;;;;;;26.45;6.38;;;;;;;;;;4956437;28;20126;-79
2023/11/19 01:32:53;;;;;;;21.77;5.70;;;;;;;;;;4970367;28;20027;-79
2023/11/19 01:35:18;;;;;;;21.25;5.10;;;;;;;;;;4967935;28;20062;-78
2023/11/19 01:37:44;;;;;;;25.27;6.20;;;;;;;;;;4969985;28;20066;-78
2023/11/19 01:40:11;;;;;;;20.02;5.75;;;;;;;;;;4950513;28;20372;-79
2023/11/19 01:42:40;;;;;;;23.38;4.97;;;;;;;;;;4951085;28;20109;-79
2023/11/19 01:45:07;;;;;;;25.48;5.00;;;;;;;;;;4954593;28;20042;-79
2023/11/19 01:47:34;;;;;;;23.05;5.35;;;;;;;;;;4969290;28;20538;-79
2023/11/19 01:50:01;;;;;;;22.08;5.00;;;;;;;;;;4965513;28;20031;-79
2023/11/19 01:52:27;;;;;;;23.33;5.43;;;;;;;;;;4934866;28;20049;-79
2023/11/19 01:54:54;;;;;;;19.98;4.85;;;;;;;;;;4949965;28;20035;-79
2023/11/19 01:57:23;;;;;;;21.52;5.53;;;;;;;;;;4969009;28;20030;-78
2023/11/19 01:59:51;;;;;;;26.55;5.28;;;;;;;;;;4971126;28;20034;-79
2023/11/19 02:02:20;;;;;;;25.42;4.90;;;;;;;;;;4969020;28;20054;-78
2023/11/19 02:04:48;;;;;;;19.25;4.55;;;;;;;;;;4972578;28;20514;-79
2023/11/19 02:07:14;;;;;;;24.83;4.97;;;;;;;;;;4961794;28;20485;-79
2023/11/19 02:09:42;;;;;;;24.55;5.10;;;;;;;;;;4961975;28;20547;-79
2023/11/19 02:12:09;;;;;;;28.77;5.25;;;;;;;;;;4956452;28;20039;-79
2023/11/19 02:14:34;;;;;;;31.38;5.13;;;;;;;;;;4974371;28;20031;-79
2023/11/19 02:17:01;;;;;;;27.92;5.00;;;;;;;;;;4960766;28;20045;-79
2023/11/19 02:19:27;;;;;;;30.02;4.78;;;;;;;;;;4939849;28;20043;-79
2023/11/19 02:21:53;;;;;;;29.17;4.40;;;;;;;;;;4958977;28;20038;-79
2023/11/19 02:24:21;;;;;;;22.95;3.55;;;;;;;;;;4956007;28;20452;-79
2023/11/19 02:27:02;;;;;;;25.77;4.65;;;;;;;;;;4975603;28;20031;-78
2023/11/19 02:29:28;;;;;;;24.98;4.60;;;;;;;;;;4965865;28;20038;-79
2023/11/19 02:31:54;;;;;;;23.33;4.07;;;;;;;;;;4952898;28;20481;-79
2023/11/19 02:34:21;;;;;;;25.83;3.58;;;;;;;;;;4959891;28;20489;-78
2023/11/19 02:36:47;;;;;;;28.55;4.07;;;;;;;;;;4962168;28;20060;-79
2023/11/19 02:39:13;;;;;;;27.40;5.65;;;;;;;;;;4957418;28;20031;-79
2023/11/19 02:41:39;;;;;;;28.58;4.05;;;;;;;;;;4955597;28;20030;-79
2023/11/19 02:44:06;;;;;;;27.35;3.95;;;;;;;;;;4977906;28;20031;-79
2023/11/19 02:46:32;;;;;;;27.60;4.20;;;;;;;;;;4957190;28;20026;-79
2023/11/19 02:48:57;;;;;;;30.20;4.03;;;;;;;;;;4958700;28;20045;-79
2023/11/19 02:51:23;;;;;;;22.83;3.38;;;;;;;;;;4974734;28;20042;-78
2023/11/19 02:53:49;;;;;;;26.00;4.22;;;;;;;;;;4957200;28;20027;-79
2023/11/19 02:56:25;;;;;;;24.23;3.92;;;;;;;;;;4936657;28;20026;-79
2023/11/19 02:58:51;;;;;;;22.48;4.00;;;;;;;;;;4953857;28;20035;-79
2023/11/19 03:01:29;;;;;;;25.00;4.22;;;;;;;;;;4954767;28;20481;-78
2023/11/19 03:03:57;;;;;;;25.38;4.22;;;;;;;;;;4970967;28;20033;-79
2023/11/19 03:06:23;;;;;;;26.33;4.38;;;;;;;;;;4956605;28;21304;-78
2023/11/19 03:08:48;;;;;;;17.45;4.18;;;;;;;;;;4967728;28;20039;-79
2023/11/19 03:11:14;;;;;;;29.02;4.82;;;;;;;;;;4945353;28;20049;-79
2023/11/19 03:13:40;;;;;;;21.83;3.80;;;;;;;;;;4968220;28;20031;-79
2023/11/19 03:16:06;;;;;;;32.72;4.45;;;;;;;;;;4972570;28;20034;-80
2023/11/19 03:18:32;;;;;;;27.02;4.00;;;;;;;;;;4952906;28;20039;-78
2023/11/19 03:20:58;;;;;;;25.10;4.20;;;;;;;;;;4940881;28;20039;-79
2023/11/19 03:23:24;;;;;;;26.02;4.20;;;;;;;;;;4953256;28;20088;-78
2023/11/19 03:25:50;;;;;;;28.00;3.72;;;;;;;;;;4971412;28;20552;-79
2023/11/19 03:28:16;;;;;;;30.30;4.03;;;;;;;;;;4968232;28;20153;-79
2023/11/19 03:30:41;;;;;;;27.50;4.55;;;;;;;;;;4955697;28;20039;-79
2023/11/19 03:33:07;;;;;;;25.88;4.50;;;;;;;;;;4961495;28;20485;-80
2023/11/19 03:35:33;;;;;;;24.45;4.03;;;;;;;;;;4973181;28;20092;-78
2023/11/19 03:37:58;;;;;;;21.88;3.67;;;;;;;;;;4957814;28;20039;-79
2023/11/19 03:40:25;;;;;;;29.50;4.32;;;;;;;;;;4974207;28;20030;-79
2023/11/19 03:42:50;;;;;;;18.42;3.28;;;;;;;;;;4974600;28;20031;-79
2023/11/19 03:45:16;;;;;;;29.77;3.53;;;;;;;;;;4971761;28;20175;-79
2023/11/19 03:47:42;;;;;;;18.20;2.95;;;;;;;;;;4969867;28;20037;-79
2023/11/19 03:50:08;;;;;;;22.17;3.67;;;;;;;;;;4971913;28;20082;-79
2023/11/19 03:52:34;;;;;;;22.50;3.60;;;;;;;;;;4949821;28;20045;-78
2023/11/19 03:55:00;;;;;;;21.98;4.05;;;;;;;;;;4952683;28;21059;-78
2023/11/19 03:57:27;;;;;;;20.33;3.67;;;;;;;;;;4970557;28;20096;-80
2023/11/19 03:59:53;;;;;;;23.83;3.58;;;;;;;;;;4958873;28;20400;-79
2023/11/19 04:02:18;;;;;;;19.98;2.90;;;;;;;;;;4939253;28;20114;-79
2023/11/19 04:04:45;;;;;;;24.50;3.72;;;;;;;;;;4974133;28;20026;-79
2023/11/19 04:07:10;;;;;;;26.05;3.65;;;;;;;;;;4947579;28;20393;-79
2023/11/19 04:09:37;;;;;;;23.55;2.97;;;;;;;;;;4954168;28;20042;-79
2023/11/19 04:12:03;;;;;;;25.33;3.20;;;;;;;;;;4960687;28;20089;-79
2023/11/19 04:14:29;;;;;;;28.20;3.97;;;;;;;;;;4958793;28;20101;-79
2023/11/19 04:16:54;;;;;;;27.35;3.42;;;;;;;;;;4953251;28;20505;-78
2023/11/19 04:19:20;;;;;;;27.40;3.58;;;;;;;;;;4959562;28;20062;-79
2023/11/19 04:21:46;;;;;;;23.40;3.40;;;;;;;;;;4938108;28;20451;-79
2023/11/19 04:24:12;;;;;;;20.90;3.67;;;;;;;;;;4954280;28;20118;-79
2023/11/19 04:26:46;;;;;;;25.92;3.60;;;;;;;;;;4955329;28;20043;-79
2023/11/19 04:29:19;;;;;;;28.02;4.70;;;;;;;;;;4966785;28;20035;-79
2023/11/19 04:31:45;;;;;;;21.17;3.58;;;;;;;;;;4968763;28;20031;-79
2023/11/19 04:34:12;;;;;;;22.63;3.78;;;;;;;;;;4955841;28;20030;-79
2023/11/19 04:36:37;;;;;;;24.15;3.75;;;;;;;;;;4952308;28;20062;-79
2023/11/19 04:39:15;;;;;;;28.60;3.55;;;;;;;;;;4957496;28;20061;-79
2023/11/19 04:41:53;;;;;;;21.40;3.42;;;;;;;;;;4956778;28;20042;-79
2023/11/19 04:44:18;;;;;;;26.13;4.07;;;;;;;;;;4955102;28;20501;-78
2023/11/19 04:46:44;;;;;;;28.10;3.55;;;;;;;;;;4973160;28;20030;-79
2023/11/19 04:49:14;;;;;;;26.83;3.90;;;;;;;;;;4957829;28;20085;-79
2023/11/19 04:51:43;;;;;;;24.85;3.42;;;;;;;;;;4978422;28;20105;-79
2023/11/19 04:54:10;;;;;;;24.50;3.72;;;;;;;;;;4978972;28;20823;-79
2023/11/19 04:56:39;;;;;;;33.13;4.10;;;;;;;;;;4957812;28;20492;-79
2023/11/19 04:59:05;;;;;;;25.45;3.83;;;;;;;;;;4960532;28;20046;-79
2023/11/19 05:01:34;;;;;;;21.17;3.38;;;;;;;;;;4975546;28;20053;-79
2023/11/19 05:04:00;;;;;;;24.83;3.72;;;;;;;;;;4959342;28;21014;-78
2023/11/19 05:06:29;;;;;;;23.20;3.30;;;;;;;;;;4972609;28;20477;-79
2023/11/19 05:08:58;;;;;;;20.80;4.00;;;;;;;;;;4982993;28;20121;-79
2023/11/19 05:11:24;;;;;;;30.13;3.92;;;;;;;;;;4977650;28;20027;-79
2023/11/19 05:13:50;;;;;;;24.35;3.67;;;;;;;;;;4957548;28;20073;-79
2023/11/19 05:16:17;;;;;;;23.83;3.90;;;;;;;;;;4960341;28;20054;-87
2023/11/19 05:18:43;;;;;;;22.95;3.85;;;;;;;;;;4959932;28;20050;-87
2023/11/19 05:21:08;;;;;;;30.67;4.03;;;;;;;;;;4961271;28;20035;-87
2023/11/19 05:23:34;;;;;;;25.60;3.33;;;;;;;;;;4961196;28;20122;-86
2023/11/19 05:26:03;;;;;;;26.08;3.33;;;;;;;;;;4944548;28;20370;-87
2023/11/19 05:28:28;;;;;;;26.63;3.30;;;;;;;;;;4961000;28;20058;-88
2023/11/19 05:30:55;;;;;;;28.27;3.55;;;;;;;;;;4950125;28;20481;-87
2023/11/19 05:33:20;;;;;;;27.75;3.80;;;;;;;;;;4959767;28;20047;-87
2023/11/19 05:35:46;;;;;;;28.73;4.20;;;;;;;;;;4966368;28;20134;-87
2023/11/19 05:38:11;;;;;;;27.35;3.72;;;;;;;;;;4937978;29;20142;-79
2023/11/19 05:40:38;;;;;;;26.00;3.75;;;;;;;;;;4970403;28;20510;-79
2023/11/19 05:43:05;;;;;;;28.35;4.25;;;;;;;;;;4953700;28;20038;-79
2023/11/19 05:45:30;;;;;;;30.48;4.53;;;;;;;;;;4957729;28;20078;-78
2023/11/19 05:47:55;;;;;;;28.95;3.80;;;;;;;;;;4942138;28;20030;-78
2023/11/19 05:50:21;;;;;;;22.52;3.97;;;;;;;;;;4941806;28;20377;-79
2023/11/19 05:52:46;;;;;;;19.55;3.53;;;;;;;;;;4942149;28;20122;-79
2023/11/19 05:55:13;;;;;;;27.05;3.97;;;;;;;;;;4958460;28;20065;-78
2023/11/19 05:57:42;;;;;;;31.60;3.97;;;;;;;;;;4958353;28;20038;-78
2023/11/19 06:00:10;;;;;;;28.25;3.90;;;;;;;;;;4974137;28;20023;-79
2023/11/19 06:02:38;;;;;;;22.75;3.40;;;;;;;;;;4938610;28;20027;-78
2023/11/19 06:05:05;;;;;;;26.80;3.92;;;;;;;;;;4937413;28;20553;-80
2023/11/19 06:07:31;;;;;;;31.13;3.95;;;;;;;;;;4973164;28;20070;-79
2023/11/19 06:09:57;;;;;;;24.45;3.40;;;;;;;;;;4944970;28;20031;-79
2023/11/19 06:12:22;;;;;;;31.23;3.90;;;;;;;;;;4946950;28;20089;-79
2023/11/19 06:14:48;;;;;;;24.67;4.20;;;;;;;;;;4941476;28;20038;-79
2023/11/19 06:17:13;;;;;;;23.92;4.07;;;;;;;;;;4944025;28;20038;-79
2023/11/19 06:19:39;;;;;;;30.55;3.95;;;;;;;;;;4943781;28;20476;-79
2023/11/19 06:22:04;;;;;;;23.52;3.75;;;;;;;;;;4944881;28;20382;-80
2023/11/19 06:24:33;;;;;;;27.90;4.85;;;;;;;;;;4957738;28;20050;-79
2023/11/19 06:26:59;;;;;;;26.80;3.30;;;;;;;;;;4983448;28;20077;-87
2023/11/19 06:29:24;;;;;;;24.15;3.60;;;;;;;;;;4963294;28;20027;-89
2023/11/19 06:31:50;;;;;;;28.17;3.75;;;;;;;;;;4963632;28;20444;-89
2023/11/19 06:34:15;;;;;;;32.97;4.43;;;;;;;;;;4965069;28;20027;-88
2023/11/19 06:36:43;;;;;;;30.52;3.90;;;;;;;;;;4946037;28;20425;-89
2023/11/19 06:39:08;;;;;;;29.30;4.15;;;;;;;;;;4957789;28;20070;-88
2023/11/19 06:41:34;;;;;;;23.25;4.32;;;;;;;;;;4965807;28;20085;-88
2023/11/19 06:43:59;;;;;;;24.83;3.42;;;;;;;;;;4933799;28;20472;-89
2023/11/19 06:46:25;;;;;;;30.55;3.83;;;;;;;;;;4942715;28;20039;-79
2023/11/19 06:48:50;;;;;;;26.50;3.70;;;;;;;;;;4978190;28;20034;-79
2023/11/19 06:51:16;;;;;;;26.13;3.92;;;;;;;;;;4977258;28;20030;-79
2023/11/19 06:53:44;;;;;;;24.40;3.28;;;;;;;;;;4978317;28;20034;-79
2023/11/19 06:56:23;;;;;;;29.45;3.67;;;;;;;;;;4938707;28;20046;-79
2023/11/19 06:58:49;;;;;;;26.70;3.80;;;;;;;;;;4956310;28;20105;-80
2023/11/19 07:01:17;;;;;;;27.40;3.53;;;;;;;;;;4972036;28;20030;-80
2023/11/19 07:03:48;;;;;;;21.77;3.30;;;;;;;;;;4972128;28;20111;-80
2023/11/19 07:06:14;;;;;;;23.30;4.18;;;;;;;;;;4974334;28;20033;-80
2023/11/19 07:08:44;;;;;;;24.80;3.47;;;;;;;;;;4979169;28;20109;-80
2023/11/19 07:11:11;;;;;;;30.30;5.00;;;;;;;;;;4979161;28;20089;-80
2023/11/19 07:13:37;;;;;;;23.40;3.70;;;;;;;;;;4976914;28;20031;-79
2023/11/19 07:16:03;;;;;;;25.98;3.97;;;;;;;;;;4969497;28;20034;-80
2023/11/19 07:18:31;;;;;;;29.13;3.58;;;;;;;;;;4966482;28;20121;-80
2023/11/19 07:20:57;;;;;;;29.23;3.92;;;;;;;;;;4973882;28;20030;-80
2023/11/19 07:23:22;;;;;;;29.23;4.28;;;;;;;;;;4939556;28;20125;-80
2023/11/19 07:25:51;;;;;;;30.92;5.15;;;;;;;;;;4956279;28;20406;-80
2023/11/19 07:28:19;;;;;;;21.65;3.60;;;;;;;;;;4940523;28;20106;-80
2023/11/19 07:30:45;;;;;;;26.77;3.80;;;;;;;;;;4973071;28;20077;-80
2023/11/19 07:33:10;;;;;;;25.33;4.53;;;;;;;;;;4973060;28;20039;-79
2023/11/19 07:35:36;;;;;;;27.20;3.85;;;;;;;;;;4973352;28;20033;-80
2023/11/19 07:38:02;;;;;;;29.30;4.30;;;;;;;;;;4973123;28;20477;-79
2023/11/19 07:40:27;;;;;;;24.23;3.78;;;;;;;;;;4974234;28;20078;-79
2023/11/19 07:42:53;;;;;;;29.05;3.83;;;;;;;;;;4972933;28;20022;-80
2023/11/19 07:45:19;;;;;;;21.45;3.25;;;;;;;;;;4972336;28;20551;-79
2023/11/19 07:47:44;;;;;;;24.70;3.35;;;;;;;;;;4975543;28;20058;-79
2023/11/19 07:50:10;;;;;;;29.85;4.35;;;;;;;;;;4959536;28;20435;-79
2023/11/19 07:52:37;;;;;;;33.83;4.50;;;;;;;;;;4955205;28;20075;-79
2023/11/19 07:55:03;;;;;;;27.02;4.15;;;;;;;;;;4957502;28;20130;-79
2023/11/19 07:57:30;;;;;;;34.88;5.15;;;;;;;;;;4941248;28;20793;-79
2023/11/19 07:59:57;;;;;;;25.95;3.65;;;;;;;;;;4973524;28;20029;-79
2023/11/19 08:02:23;;;;;;;28.75;3.97;;;;;;;;;;4957545;28;20059;-79
2023/11/19 08:04:51;;;;;;;30.08;3.42;;;;;;;;;;4958277;28;20485;-80
2023/11/19 08:07:17;;;;;;;24.27;3.53;;;;;;;;;;4972812;28;20506;-79
2023/11/19 08:09:43;;;;;;;20.10;2.78;;;;;;;;;;4986944;28;20034;-79
2023/11/19 08:12:08;;;;;;;30.52;3.15;;;;;;;;;;4979201;28;20057;-80
2023/11/19 08:14:35;;;;;;;24.08;3.80;;;;;;;;;;4978813;28;20509;-81
2023/11/19 08:17:04;;;;;;;30.23;3.78;;;;;;;;;;4976479;28;20022;-79
2023/11/19 08:19:30;;;;;;;24.05;3.80;;;;;;;;;;4971536;28;20027;-79
2023/11/19 08:21:55;;;;;;;24.40;3.05;;;;;;;;;;4977033;28;20448;-79
2023/11/19 08:24:20;;;;;;;30.42;4.20;;;;;;;;;;4977304;28;20033;-78
2023/11/19 08:26:46;;;;;;;27.20;4.30;;;;;;;;;;4956856;28;20069;-79
2023/11/19 08:29:11;;;;;;;29.60;4.47;;;;;;;;;;4966084;28;20037;-79
2023/11/19 08:31:37;;;;;;;28.70;3.50;;;;;;;;;;4961092;28;20547;-79
2023/11/19 08:34:03;;;;;;;27.90;3.55;;;;;;;;;;4961117;28;20062;-79
2023/11/19 08:36:28;;;;;;;22.20;3.45;;;;;;;;;;4960850;28;20485;-79
2023/11/19 08:38:54;;;;;;;26.73;3.72;;;;;;;;;;4962364;28;20121;-79
2023/11/19 08:41:21;;;;;;;23.38;3.70;;;;;;;;;;4964916;28;20400;-78
2023/11/19 08:43:47;;;;;;;25.20;3.38;;;;;;;;;;4939334;28;20859;-79
2023/11/19 08:46:12;;;;;;;32.83;3.53;;;;;;;;;;4955606;28;20038;-80
2023/11/19 08:48:38;;;;;;;26.60;3.88;;;;;;;;;;4957062;28;20031;-79
2023/11/19 08:51:04;;;;;;;23.48;2.88;;;;;;;;;;4966939;28;20401;-79
2023/11/19 08:53:31;;;;;;;28.02;3.63;;;;;;;;;;4964685;28;20041;-79
2023/11/19 08:55:58;;;;;;;31.52;3.95;;;;;;;;;;4981746;28;20034;-79
2023/11/19 08:58:23;;;;;;;28.33;3.13;;;;;;;;;;4982274;28;20035;-79
2023/11/19 09:00:49;;;;;;;21.13;3.53;;;;;;;;;;4980549;28;20081;-79
2023/11/19 09:03:14;;;;;;;25.95;3.03;;;;;;;;;;4978354;28;20081;-79
2023/11/19 09:05:40;;;;;;;32.60;4.93;;;;;;;;;;4978634;28;20090;-79
2023/11/19 09:08:06;;;;;;;26.60;3.60;;;;;;;;;;4987624;28;20026;-87
2023/11/19 09:10:32;;;;;;;26.88;3.60;;;;;;;;;;4974948;28;20042;-87
2023/11/19 09:12:57;;;;;;;22.30;3.13;;;;;;;;;;4953387;28;20649;-87
2023/11/19 09:15:22;;;;;;;27.40;4.00;;;;;;;;;;4947689;28;20084;-86
2023/11/19 09:17:48;;;;;;;25.83;3.47;;;;;;;;;;4941082;29;20497;-87
2023/11/19 09:20:15;;;;;;;27.55;4.45;;;;;;;;;;4963226;28;20089;-87
2023/11/19 09:22:41;;;;;;;26.63;4.38;;;;;;;;;;4957287;28;20026;-87
2023/11/19 09:25:07;;;;;;;25.35;3.42;;;;;;;;;;4944468;28;20042;-86
2023/11/19 09:27:33;;;;;;;27.40;3.58;;;;;;;;;;4977547;28;20025;-87
2023/11/19 09:29:58;;;;;;;20.15;3.65;;;;;;;;;;4974840;28;20035;-86
2023/11/19 09:32:25;;;;;;;28.35;4.50;;;;;;;;;;4931059;28;20029;-87
2023/11/19 09:34:50;;;;;;;26.60;3.63;;;;;;;;;;4958021;28;20034;-87
2023/11/19 09:37:16;;;;;;;25.05;4.00;;;;;;;;;;4952744;28;20026;-87
2023/11/19 09:39:43;;;;;;;28.95;3.78;;;;;;;;;;4943922;28;20030;-87
2023/11/19 09:42:09;;;;;;;30.95;3.83;;;;;;;;;;4960210;28;20480;-87
2023/11/19 09:44:38;;;;;;;25.40;3.55;;;;;;;;;;4965730;28;20027;-88
2023/11/19 09:47:06;;;;;;;26.60;3.60;;;;;;;;;;4975555;28;20030;-84
2023/11/19 09:49:33;;;;;;;24.50;3.42;;;;;;;;;;4980042;28;20026;-87
2023/11/19 09:51:58;;;;;;;25.75;3.78;;;;;;;;;;4953202;28;20476;-87
2023/11/19 09:54:26;;;;;;;30.15;5.30;;;;;;;;;;4961540;28;20029;-87
2023/11/19 09:56:51;;;;;;;26.10;4.43;;;;;;;;;;4940863;28;20039;-86
2023/11/19 09:59:18;;;;;;;23.85;3.75;;;;;;;;;;4959687;28;20033;-86
2023/11/19 10:01:45;;;;;;;23.70;3.53;;;;;;;;;;4956967;28;20130;-86
2023/11/19 10:04:15;;;;;;;27.33;3.65;;;;;;;;;;4959237;28;20029;-88
2023/11/19 10:06:42;;;;;;;30.10;4.32;;;;;;;;;;4957046;28;20089;-86
2023/11/19 10:09:07;;;;;;;25.15;3.53;;;;;;;;;;4969371;28;20034;-87
2023/11/19 10:11:33;;;;;;;23.55;3.78;;;;;;;;;;4957221;28;20105;-88
2023/11/19 10:13:59;;;;;;;22.05;3.47;;;;;;;;;;4963454;28;20039;-89
2023/11/19 10:16:31;;;;;;;23.55;3.80;;;;;;;;;;4986928;28;20485;-79
2023/11/19 10:18:56;;;;;;;20.73;3.45;;;;;;;;;;4964299;28;20058;-79
2023/11/19 10:21:22;;;;;;;24.73;3.72;;;;;;;;;;4988868;28;20027;-79
2023/11/19 10:23:48;;;;;;;22.45;3.10;;;;;;;;;;4961912;28;20394;-79
2023/11/19 10:26:13;;;;;;;28.42;3.42;;;;;;;;;;4960332;28;20165;-79
2023/11/19 10:28:39;;;;;;;20.13;3.17;;;;;;;;;;4944999;28;21528;-80
2023/11/19 10:31:05;;;;;;;23.65;3.92;;;;;;;;;;4947996;28;20528;-79
2023/11/19 10:33:31;;;;;;;25.23;3.65;;;;;;;;;;4948926;28;20551;-78
2023/11/19 10:35:57;;;;;;;23.33;3.28;;;;;;;;;;4945222;28;20039;-79
2023/11/19 10:38:24;;;;;;;26.98;3.33;;;;;;;;;;4965494;28;20033;-78
2023/11/19 10:40:50;;;;;;;27.17;3.63;;;;;;;;;;4961141;28;20046;-79
2023/11/19 10:43:17;;;;;;;23.98;2.95;;;;;;;;;;4971515;28;20488;-78
2023/11/19 10:45:43;;;;;;;23.58;3.58;;;;;;;;;;4964826;28;20035;-78
2023/11/19 10:48:09;;;;;;;22.27;3.83;;;;;;;;;;4963277;28;20061;-78
2023/11/19 10:50:42;;;;;;;23.92;3.90;;;;;;;;;;4959970;28;20453;-78
2023/11/19 10:53:10;;;;;;;22.38;3.50;;;;;;;;;;4965032;28;20034;-78
2023/11/19 10:55:38;;;;;;;22.08;3.10;;;;;;;;;;4979007;28;20046;-79
2023/11/19 10:58:16;;;;;;;18.95;2.75;;;;;;;;;;4960444;28;20026;-78
2023/11/19 11:00:50;;;;;;;28.60;4.28;;;;;;;;;;4962820;28;20027;-78
2023/11/19 11:03:16;;;;;;;24.45;4.22;;;;;;;;;;4972139;28;20061;-78
2023/11/19 11:05:42;;;;;;;29.45;4.07;;;;;;;;;;4959562;28;20456;-79
2023/11/19 11:08:09;;;;;;;21.98;3.47;;;;;;;;;;4961258;28;20074;-88
2023/11/19 11:10:41;;;;;;;22.48;3.55;;;;;;;;;;4945827;28;20027;-90
2023/11/19 11:13:07;;;;;;;29.80;4.05;;;;;;;;;;4987502;28;20073;-92
2023/11/19 11:15:34;;;;;;;18.35;3.15;;;;;;;;;;4961484;28;20066;-89
2023/11/19 11:18:01;;;;;;;24.88;3.50;;;;;;;;;;4963651;28;20035;-88
2023/11/19 11:20:33;;;;;;;22.08;2.97;;;;;;;;;;4971672;28;20042;-89
2023/11/19 11:23:11;;;;;;;21.03;3.40;;;;;;;;;;4943840;28;20170;-89
2023/11/19 11:25:51;;;;;;;23.15;3.75;;;;;;;;;;4963729;28;20292;-90
2023/11/19 11:28:32;;;;;;;23.60;3.28;;;;;;;;;;4961369;28;20059;-90
2023/11/19 11:31:25;;;;;;;19.80;4.03;;;;;;;;;;4978036;28;20030;-88
2023/11/19 11:34:03;;;;;;;27.23;3.90;;;;;;;;;;4978166;28;20022;-90
2023/11/19 11:36:30;;;;;;;21.00;3.15;;;;;;;;;;4953712;28;20117;-78
2023/11/19 11:39:00;;;;;;;17.75;3.17;;;;;;;;;;4944968;28;20039;-78
2023/11/19 11:41:26;;;;;;;23.15;3.50;;;;;;;;;;4965835;28;20097;-77
2023/11/19 11:43:55;;;;;;;23.25;3.58;;;;;;;;;;4964893;28;20038;-77
2023/11/19 11:46:33;;;;;;;21.73;2.97;;;;;;;;;;4958909;28;20042;-78
2023/11/19 11:49:06;;;;;;;17.45;2.97;;;;;;;;;;4966513;28;20458;-78
2023/11/19 11:51:44;;;;;;;17.63;2.83;;;;;;;;;;4975779;28;20042;-78
2023/11/19 11:54:30;;;;;;;18.40;2.75;;;;;;;;;;4962128;28;20070;-78
2023/11/19 11:57:03;;;;;;;16.65;2.58;;;;;;;;;;4956737;28;20038;-78
2023/11/19 11:59:42;;;;;;;17.70;3.13;;;;;;;;;;4951905;28;20040;-78
2023/11/19 12:02:09;;;;;;;18.80;3.13;;;;;;;;;;4948589;28;20173;-77
2023/11/19 12:04:35;;;;;;;17.80;2.63;;;;;;;;;;4981752;28;20054;-78
2023/11/19 12:07:13;;;;;;;21.10;2.67;;;;;;;;;;4953513;28;20039;-78
2023/11/19 12:09:41;;;;;;;21.75;3.10;;;;;;;;;;4942244;28;20042;-78
2023/11/19 12:12:22;;;;;;;17.45;2.92;;;;;;;;;;4940320;28;20065;-78
2023/11/19 12:15:11;;;;;;;18.27;2.75;;;;;;;;;;4972465;28;20030;-78
2023/11/19 12:17:40;;;;;;;18.27;3.17;;;;;;;;;;4953562;28;20034;-89
2023/11/19 12:20:11;;;;;;;17.77;3.75;;;;;;;;;;4935110;28;20051;-90
2023/11/19 12:22:41;;;;;;;14.70;2.72;;;;;;;;;;4942438;28;20561;-91
2023/11/19 12:25:08;;;;;;;15.25;2.88;;;;;;;;;;4968328;28;20502;-89
2023/11/19 12:27:34;;;;;;;15.20;2.45;;;;;;;;;;4959156;28;20139;-89
2023/11/19 12:30:00;;;;;;;18.52;2.83;;;;;;;;;;4985051;28;20125;-89
2023/11/19 12:32:26;;;;;;;21.40;3.33;;;;;;;;;;4963560;28;20093;-90
2023/11/19 12:34:51;;;;;;;18.52;3.08;;;;;;;;;;4966014;28;20038;-89
2023/11/19 12:37:17;;;;;;;14.07;3.10;;;;;;;;;;4946146;28;20106;-89
2023/11/19 12:39:43;;;;;;;19.80;3.30;;;;;;;;;;4953250;28;20045;-89
2023/11/19 12:42:08;;;;;;;22.08;3.60;;;;;;;;;;4969516;28;20100;-90
2023/11/19 12:44:34;;;;;;;23.77;3.40;;;;;;;;;;4956316;28;20042;-89
2023/11/19 12:47:07;;;;;;;22.00;3.35;;;;;;;;;;4971481;28;20147;-89
2023/11/19 12:49:35;;;;;;;23.30;3.45;;;;;;;;;;4955353;28;20268;-92
2023/11/19 12:52:01;;;;;;;27.58;3.53;;;;;;;;;;4936902;28;20133;-92
2023/11/19 12:54:36;;;;;;;21.83;3.85;;;;;;;;;;4971063;28;20560;-90
2023/11/19 12:57:03;;;;;;;23.00;3.95;;;;;;;;;;4968141;28;20677;-89
2023/11/19 12:59:29;;;;;;;19.20;3.00;;;;;;;;;;4970384;28;20041;-90
2023/11/19 13:01:58;;;;;;;18.52;3.25;;;;;;;;;;4939790;28;20038;-92
2023/11/19 13:04:28;;;;;;;18.35;3.88;;;;;;;;;;4966505;28;20042;-92
2023/11/19 13:06:54;;;;;;;21.35;4.32;;;;;;;;;;4967011;28;20050;-91
2023/11/19 13:09:27;;;;;;;24.63;3.38;;;;;;;;;;4941555;28;20034;-93
2023/11/19 13:11:53;;;;;;;17.42;3.20;;;;;;;;;;4942252;28;20030;-89
2023/11/19 13:14:20;;;;;;;21.15;4.47;;;;;;;;;;4963943;28;20054;-92
2023/11/19 13:16:46;;;;;;;22.83;3.80;;;;;;;;;;4952102;28;20126;-94
2023/11/19 13:19:13;;;;;;;18.88;4.25;;;;;;;;;;4969382;28;20031;-92
2023/11/19 13:21:39;;;;;;;21.23;4.55;;;;;;;;;;4954088;28;20097;-90
2023/11/19 13:24:06;;;;;;;21.75;3.53;;;;;;;;;;4952794;28;20883;-89
2023/11/19 13:26:31;;;;;;;20.38;3.60;;;;;;;;;;4951583;28;20057;-78
2023/11/19 13:28:57;;;;;;;23.33;4.15;;;;;;;;;;4935845;28;20039;-78
2023/11/19 13:31:22;;;;;;;18.85;4.35;;;;;;;;;;4953267;28;20122;-77
2023/11/19 13:33:48;;;;;;;20.17;3.78;;;;;;;;;;4947384;28;20054;-78
2023/11/19 13:36:13;;;;;;;22.45;3.72;;;;;;;;;;4953027;28;20034;-78
2023/11/19 13:38:40;;;;;;;19.17;3.78;;;;;;;;;;4933816;28;20065;-77
2023/11/19 13:41:06;;;;;;;20.98;4.00;;;;;;;;;;4967432;28;20567;-77
2023/11/19 13:43:32;;;;;;;21.00;3.42;;;;;;;;;;4950533;28;20043;-77
2023/11/19 13:45:58;;;;;;;16.75;3.13;;;;;;;;;;4948662;28;20472;-77
2023/11/19 13:48:24;;;;;;;20.20;3.50;;;;;;;;;;4954364;28;20030;-78
2023/11/19 13:50:50;;;;;;;21.08;3.45;;;;;;;;;;4951095;28;20034;-77
2023/11/19 13:53:16;;;;;;;20.92;3.65;;;;;;;;;;4960847;28;20104;-78
2023/11/19 13:55:42;;;;;;;16.42;3.00;;;;;;;;;;4960435;28;20034;-78
2023/11/19 13:58:09;;;;;;;22.45;3.45;;;;;;;;;;4979620;28;20030;-89
2023/11/19 14:00:34;;;;;;;25.90;3.78;;;;;;;;;;4954522;28;20551;-88
2023/11/19 14:03:00;;;;;;;12.48;2.55;;;;;;;;;;4956711;28;20039;-89
2023/11/19 14:05:26;;;;;;;16.60;3.35;;;;;;;;;;4954708;28;20066;-88
2023/11/19 14:07:52;;;;;;;19.88;2.88;;;;;;;;;;4940790;28;20603;-89
2023/11/19 14:10:17;;;;;;;14.13;2.80;;;;;;;;;;4948563;28;20042;-88
2023/11/19 14:12:43;;;;;;;19.23;3.15;;;;;;;;;;4953788;28;20113;-89
2023/11/19 14:15:09;;;;;;;21.38;2.80;;;;;;;;;;4966137;28;20027;-88
2023/11/19 14:17:36;;;;;;;17.38;3.50;;;;;;;;;;4974309;28;20107;-88
2023/11/19 14:20:12;;;;;;;20.38;3.47;;;;;;;;;;4969450;28;20035;-89
2023/11/19 14:22:44;;;;;;;22.00;4.53;;;;;;;;;;4969978;28;20030;-88
2023/11/19 14:25:10;;;;;;;17.33;4.88;;;;;;;;;;4969031;28;20065;-88
2023/11/19 14:27:43;;;;;;;27.20;5.18;;;;;;;;;;4967849;28;20026;-88